Friday, November 24, 2017, 5:29 AM GMT
Back to Local

CYBC, Baie Comeau, Que.

Location: , , Canada Lat: 49.133
Local Time: 5:29 AM GMT ( 5:29 GMT) Lon: -68.2
Time Zone: GMT Elev: 68 ft

Show me the last for .
Show Coded

Time T Td Feel RH Dir Speed Gust Alt SLP Vis Weather Sky Remarks
2017-11-24 05:01 27 21 14 79 250° 17 - 29.65 29.65 9 SCT016 BKN023 BKN045 OVC087 None
2017-11-24 05:00 27 21 15 79 250° 15 - 29.65 29.66 9 SCT016 SCT023 BKN045 OVC087 None
2017-11-24 04:00 27 19 15 73 260° 15 - 29.66 29.67 9 SCT038 OVC065 None
2017-11-24 03:41 27 21 13 79 260° 14 21 29.66 29.67 9 SCT016 SCT021 BKN038 OVC065 None
2017-11-24 03:23 27 21 14 79 260° 17 - 29.66 29.67 9 BKN018 OVC070 None
2017-11-24 03:00 27 21 17 79 250° 9 - 29.66 29.67 9 OVC065 None
2017-11-24 02:30 27 21 13 79 250° 14 20 29.68 29.69 9 OVC070 None
2017-11-24 02:00 25 19 14 79 260° 12 - 29.69 29.70 9 -SN OVC075 None
2017-11-24 01:39 25 18 15 73 270° 9 - 29.70 29.71 9 -SN OVC075 None
2017-11-24 01:38 25 18 15 73 270° 9 - 29.70 29.71 9 OVC075 None
2017-11-24 01:25 25 18 15 73 280° 9 - 29.70 29.71 9 -SN FEW021 BKN075 OVC130 None
2017-11-24 01:00 25 18 14 73 270° 12 - 29.71 29.72 9 FEW021 OVC130 None
2017-11-24 00:00 25 18 10 73 250° 16 22 29.73 29.73 9 FEW055 OVC130 None
2017-11-23 23:57 25 18 11 73 250° 18 - 29.73 29.73 9 FEW055 OVC130 None
2017-11-23 23:46 25 18 12 73 240° 15 - 29.73 29.74 9 -SN FEW050 OVC130 None
2017-11-23 23:00 25 16 15 68 260° 10 - 29.75 29.76 9 OVC130 None
2017-11-23 22:51 25 16 16 68 250° 8 - 29.75 29.76 9 OVC130 None
2017-11-23 22:37 25 14 16 62 260° 8 - 29.76 29.76 9 -SN OVC130 None
2017-11-23 22:00 23 16 15 73 250° 7 - 29.77 29.77 9 OVC130 None
2017-11-23 21:00 23 16 15 73 250° 7 - 29.77 29.78 9 OVC130 None
2017-11-23 20:00 25 14 18 62 280° 6 - 29.77 29.78 9 BKN036 None
2017-11-23 19:00 25 12 18 58 300° 6 - 29.77 29.78 9 OVC038 None
2017-11-23 18:00 25 12 9 58 280° 12 24 29.78 29.79 9 BKN034 None
2017-11-23 17:00 27 14 14 58 290° 12 17 29.78 29.79 9 OVC036 None
2017-11-23 16:00 25 12 11 58 310° 10 20 29.80 29.80 9 BKN034 None
2017-11-23 15:00 23 12 7 62 290° 15 23 29.82 29.83 9 BKN032 None
2017-11-23 14:00 21 14 6 73 290° 10 20 29.82 29.83 9 SCT030 None
2017-11-23 13:00 19 12 2 73 290° 13 23 29.81 29.81 9 FEW025 None
2017-11-23 12:46 19 12 3 73 290° 13 21 29.80 29.81 9 SCT023 None
2017-11-23 12:00 19 14 2 79 300° 13 23 29.79 29.80 9 BKN023 None
2017-11-23 11:25 19 14 3 79 300° 10 22 29.78 29.79 9 BKN023 None
2017-11-23 11:00 19 16 4 85 310° 14 20 29.78 29.79 9 CLR None
2017-11-23 10:00 21 18 4 85 320° 13 24 29.77 29.77 9 CLR None
2017-11-23 09:00 23 18 8 79 310° 12 22 29.77 29.78 9 CLR None
2017-11-23 08:00 25 19 15 79 300° 10 - 29.78 29.79 9 OVC060 None
2017-11-23 07:39 25 19 15 79 320° 9 - 29.79 29.80 9 SCT020 OVC065 Pressure falling rapidly
2017-11-23 07:16 25 21 18 85 280° 6 - 29.81 29.81 9 BKN020 OVC065 None
2017-11-23 07:00 25 21 18 85 280° 6 - 29.81 29.82 9 FEW018 OVC065 None
2017-11-23 06:00 27 23 18 86 290° 8 - 29.80 29.81 9 OVC065 None

Support USWX by starting your Amazon purchase here.